createdAt,value
2019-05-15T00:00:09.832Z,101379.48
2019-05-15T00:01:45.848Z,101383.31
2019-05-15T00:03:22.544Z,101379.19
2019-05-15T00:04:58.577Z,101378.33
2019-05-15T00:06:34.822Z,101383.83
2019-05-15T00:08:10.355Z,101378.00
2019-05-15T00:09:48.980Z,101378.88
2019-05-15T00:11:23.858Z,101388.81
2019-05-15T00:13:00.077Z,101383.00
2019-05-15T00:14:35.606Z,101381.08
2019-05-15T00:16:12.127Z,101386.58
2019-05-15T00:17:48.565Z,101382.23
2019-05-15T00:19:25.159Z,101375.90
2019-05-15T00:21:00.692Z,101390.19
2019-05-15T00:22:38.823Z,101382.77
2019-05-15T00:24:14.156Z,101384.69
2019-05-15T00:25:51.652Z,101380.56
2019-05-15T00:27:28.518Z,101376.95
2019-05-15T00:29:12.742Z,101373.69
2019-05-15T00:30:42.064Z,101372.31
2019-05-15T00:32:18.657Z,101364.06
2019-05-15T00:33:54.522Z,101364.06
2019-05-15T00:35:30.855Z,101358.25
2019-05-15T00:37:08.910Z,101364.06
2019-05-15T00:38:44.406Z,101360.13
2019-05-15T00:40:20.100Z,101357.38
2019-05-15T00:41:58.865Z,101356.33
2019-05-15T00:43:33.592Z,101355.82
2019-05-15T00:45:11.408Z,101356.01
2019-05-15T00:46:48.810Z,101353.80
2019-05-15T00:48:29.027Z,101355.72
2019-05-15T00:50:08.937Z,101348.20
2019-05-15T00:51:45.320Z,101350.95
2019-05-15T00:53:22.091Z,101345.67
2019-05-15T00:54:58.960Z,101351.17
2019-05-15T00:56:34.622Z,101354.44
2019-05-15T00:58:10.874Z,101354.98
2019-05-15T00:59:48.344Z,101354.44
2019-05-15T01:01:24.661Z,101341.96
2019-05-15T01:03:00.449Z,101351.39
2019-05-15T01:04:38.907Z,101350.21
2019-05-15T01:06:14.251Z,101346.09
2019-05-15T01:07:50.516Z,101345.26
2019-05-15T01:09:26.085Z,101339.44
2019-05-15T01:11:02.315Z,101333.11
2019-05-15T01:12:39.018Z,101335.86
2019-05-15T01:14:15.273Z,101336.69
2019-05-15T01:15:50.814Z,101333.64
2019-05-15T01:17:29.015Z,101328.16
2019-05-15T01:19:04.389Z,101325.41
2019-05-15T01:20:40.653Z,101325.41
2019-05-15T01:22:16.206Z,101328.34
2019-05-15T01:23:53.429Z,101326.13
2019-05-15T01:25:28.955Z,101326.67
2019-05-15T01:27:05.510Z,101323.06
2019-05-15T01:28:41.042Z,101321.69
2019-05-15T01:30:18.130Z,101324.98
2019-05-15T01:31:53.661Z,101320.86
2019-05-15T01:33:29.925Z,101313.98
2019-05-15T01:35:09.236Z,101315.36
2019-05-15T01:36:44.868Z,101311.75
2019-05-15T01:38:20.401Z,101317.24
2019-05-15T01:39:58.142Z,101309.77
2019-05-15T01:41:33.842Z,101316.41
2019-05-15T01:43:10.110Z,101314.39
2019-05-15T01:44:48.250Z,101318.01
2019-05-15T01:46:24.158Z,101306.38
2019-05-15T01:47:59.726Z,101312.73
2019-05-15T01:49:38.239Z,101310.81
2019-05-15T01:51:13.202Z,101309.44
2019-05-15T01:52:49.476Z,101307.75
2019-05-15T01:54:24.996Z,101309.12
2019-05-15T01:56:01.261Z,101309.66
2019-05-15T01:57:38.365Z,101307.42
2019-05-15T01:59:18.917Z,101316.31
2019-05-15T02:00:54.595Z,101311.87
2019-05-15T02:02:31.954Z,101312.09
2019-05-15T02:04:08.341Z,101310.39
2019-05-15T02:05:44.653Z,101311.25
2019-05-15T02:07:20.427Z,101318.13
2019-05-15T02:08:58.679Z,101314.52
2019-05-15T02:10:33.915Z,101308.52
2019-05-15T02:12:10.173Z,101304.06
2019-05-15T02:13:47.908Z,101309.34
2019-05-15T02:15:23.753Z,101310.72
2019-05-15T02:16:59.284Z,101293.58
2019-05-15T02:18:35.838Z,101295.82
2019-05-15T02:20:11.581Z,101287.58
2019-05-15T02:21:48.617Z,101280.92
2019-05-15T02:23:24.348Z,101293.07
2019-05-15T02:25:00.669Z,101285.56
2019-05-15T02:26:38.687Z,101287.47
2019-05-15T02:28:14.458Z,101282.81
2019-05-15T02:29:49.971Z,101281.11
2019-05-15T02:31:29.839Z,101284.08
2019-05-15T02:33:03.455Z,101287.38
2019-05-15T02:34:39.936Z,101277.44
2019-05-15T02:36:15.539Z,101281.55
2019-05-15T02:37:51.787Z,101278.81
2019-05-15T02:39:29.008Z,101282.10
2019-05-15T02:41:05.579Z,101278.48
2019-05-15T02:42:41.441Z,101280.91
2019-05-15T02:44:20.007Z,101275.96
2019-05-15T02:45:54.923Z,101277.87
2019-05-15T02:47:31.366Z,101276.15
2019-05-15T02:49:08.778Z,101269.80
2019-05-15T02:50:44.869Z,101268.13
2019-05-15T02:52:20.390Z,101268.64
2019-05-15T02:53:58.603Z,101268.03
2019-05-15T02:55:33.969Z,101265.50
2019-05-15T02:57:10.237Z,101274.25
2019-05-15T02:58:48.814Z,101267.28
2019-05-15T03:00:40.076Z,101270.58
2019-05-15T03:02:00.985Z,101271.30
2019-05-15T03:03:38.691Z,101270.98
2019-05-15T03:05:14.541Z,101265.20
2019-05-15T03:06:50.815Z,101266.47
2019-05-15T03:08:29.538Z,101271.65
2019-05-15T03:10:04.896Z,101273.53
2019-05-15T03:11:41.074Z,101267.75
2019-05-15T03:13:18.874Z,101269.12
2019-05-15T03:14:54.576Z,101267.10
2019-05-15T03:16:30.826Z,101266.78
2019-05-15T03:18:09.595Z,101271.12
2019-05-15T03:19:44.897Z,101268.91
2019-05-15T03:21:20.679Z,101272.17
2019-05-15T03:22:59.529Z,101268.81
2019-05-15T03:24:34.145Z,101268.81
2019-05-15T03:26:10.402Z,101265.42
2019-05-15T03:27:45.961Z,101274.20
2019-05-15T03:29:22.231Z,101271.67
2019-05-15T03:32:46.581Z,101279.91
2019-05-15T03:34:21.505Z,101274.32
2019-05-15T03:35:54.150Z,101279.48
2019-05-15T03:37:33.154Z,101276.74
2019-05-15T03:39:09.685Z,101275.38
2019-05-15T03:40:45.487Z,101268.18
2019-05-15T03:42:21.743Z,101275.38
2019-05-15T03:43:59.632Z,101276.74
2019-05-15T03:45:35.230Z,101272.84
2019-05-15T03:47:10.848Z,101276.09
2019-05-15T03:48:48.728Z,101273.89
2019-05-15T03:50:24.571Z,101266.16
2019-05-15T03:52:00.970Z,101278.84
2019-05-15T03:53:39.579Z,101270.83
2019-05-15T03:55:14.168Z,101276.64
2019-05-15T03:56:50.273Z,101276.31
2019-05-15T03:58:28.849Z,101277.37
2019-05-15T04:00:05.017Z,101272.42
2019-05-15T04:01:43.899Z,101274.11
2019-05-15T04:03:20.185Z,101275.99
2019-05-15T04:05:00.685Z,101274.63
2019-05-15T04:06:34.020Z,101279.28
2019-05-15T04:08:11.174Z,101275.99
2019-05-15T04:09:49.400Z,101277.37
2019-05-15T04:11:24.937Z,101276.31
2019-05-15T04:13:01.537Z,101274.63
2019-05-15T04:14:39.412Z,101272.92
2019-05-15T04:16:15.296Z,101275.16
2019-05-15T04:17:51.836Z,101275.48
2019-05-15T04:19:29.669Z,101276.09
2019-05-15T04:21:05.345Z,101277.80
2019-05-15T04:22:40.894Z,101278.95
2019-05-15T04:24:19.017Z,101275.38
2019-05-15T04:25:54.484Z,101275.70
2019-05-15T04:27:31.663Z,101273.56
2019-05-15T04:29:09.786Z,101275.80
2019-05-15T04:30:45.216Z,101270.08
2019-05-15T04:32:20.751Z,101280.85
2019-05-15T04:33:59.214Z,101273.77
2019-05-15T04:35:34.024Z,101282.43
2019-05-15T04:37:10.283Z,101288.53
2019-05-15T04:38:49.370Z,101285.89
2019-05-15T04:40:23.871Z,101289.28
2019-05-15T04:41:59.388Z,101284.72
2019-05-15T04:43:41.337Z,101287.28
2019-05-15T04:45:13.165Z,101286.52
2019-05-15T04:46:49.986Z,101282.17
2019-05-15T04:48:29.686Z,101284.52
2019-05-15T04:50:09.999Z,101280.49
2019-05-15T04:51:45.576Z,101281.64
2019-05-15T04:53:21.835Z,101292.09
2019-05-15T04:55:00.706Z,101287.28
2019-05-15T04:56:40.045Z,101292.77
2019-05-15T04:58:14.224Z,101290.13
2019-05-15T04:59:51.453Z,101292.33
2019-05-15T05:01:28.894Z,101298.79
2019-05-15T05:03:05.380Z,101288.95
2019-05-15T05:04:41.154Z,101285.98
2019-05-15T05:06:19.006Z,101289.37
2019-05-15T05:07:54.820Z,101290.52
2019-05-15T05:09:32.086Z,101287.55
2019-05-15T05:11:09.737Z,101288.19
2019-05-15T05:12:50.546Z,101292.92
2019-05-15T05:14:23.077Z,101282.56
2019-05-15T05:15:59.357Z,101282.67
2019-05-15T05:17:34.896Z,101285.70
2019-05-15T05:19:11.172Z,101286.34
2019-05-15T05:20:48.506Z,101289.41
2019-05-15T05:22:28.228Z,101287.27
2019-05-15T05:24:04.562Z,101287.59
2019-05-15T05:25:41.040Z,101289.29
2019-05-15T05:27:18.243Z,101288.84
2019-05-15T05:28:54.668Z,101289.70
2019-05-15T05:30:30.487Z,101288.33
2019-05-15T05:32:09.117Z,101287.05
2019-05-15T05:33:44.102Z,101289.58
2019-05-15T05:35:20.407Z,101289.58
2019-05-15T05:36:58.721Z,101287.66
2019-05-15T05:38:33.928Z,101294.12
2019-05-15T05:40:09.926Z,101292.30
2019-05-15T05:41:48.559Z,101292.07
2019-05-15T05:43:23.430Z,101293.55
2019-05-15T05:44:59.790Z,101292.81
2019-05-15T05:46:35.596Z,101291.20
2019-05-15T05:48:12.180Z,101286.34
2019-05-15T05:49:48.795Z,101292.77
2019-05-15T05:51:25.323Z,101293.60
2019-05-15T05:53:00.867Z,101295.84
2019-05-15T05:54:38.241Z,101295.30
2019-05-15T05:56:13.909Z,101294.23
2019-05-15T05:57:53.071Z,101295.39
2019-05-15T05:59:28.639Z,101299.84
2019-05-15T06:01:04.986Z,101299.29
2019-05-15T06:02:48.108Z,101296.63
2019-05-15T06:04:19.412Z,101295.03
2019-05-15T06:05:55.004Z,101298.65
2019-05-15T06:07:31.282Z,101294.61
2019-05-15T06:09:09.194Z,101293.23
2019-05-15T06:10:45.653Z,101296.31
2019-05-15T06:12:21.325Z,101295.22
2019-05-15T06:13:58.417Z,101293.94
2019-05-15T06:15:34.424Z,101294.67
2019-05-15T06:17:10.683Z,101295.81
2019-05-15T06:18:46.274Z,101300.36
2019-05-15T06:20:22.559Z,101297.70
2019-05-15T06:22:00.907Z,101304.13
2019-05-15T06:23:36.487Z,101298.70
2019-05-15T06:25:12.238Z,101293.84
2019-05-15T06:26:48.486Z,101303.02
2019-05-15T06:28:24.015Z,101298.98
2019-05-15T06:30:00.290Z,101297.69
2019-05-15T06:31:38.799Z,101294.52
2019-05-15T06:33:14.875Z,101294.37
2019-05-15T06:34:50.836Z,101293.38
2019-05-15T06:36:28.864Z,101298.22
2019-05-15T06:38:04.685Z,101294.50
2019-05-15T06:39:40.975Z,101297.66
2019-05-15T06:41:18.136Z,101300.69
2019-05-15T06:42:54.692Z,101303.25
2019-05-15T06:44:30.224Z,101305.78
2019-05-15T06:46:08.912Z,101302.79
2019-05-15T06:47:43.749Z,101304.26
2019-05-15T06:49:19.992Z,101309.84
2019-05-15T06:50:57.845Z,101307.19
2019-05-15T06:52:33.495Z,101306.64
2019-05-15T06:54:09.022Z,101302.59
2019-05-15T06:55:48.551Z,101304.91
2019-05-15T06:57:22.920Z,101302.25
2019-05-15T06:58:59.193Z,101303.70
2019-05-15T07:00:35.101Z,101307.47
2019-05-15T07:02:11.362Z,101300.23
2019-05-15T07:03:48.404Z,101297.95
2019-05-15T07:05:24.921Z,101298.75
2019-05-15T07:07:00.514Z,101300.34
2019-05-15T07:08:38.240Z,101296.69
2019-05-15T07:10:14.274Z,101296.92
2019-05-15T07:11:52.074Z,101296.33
2019-05-15T07:13:28.990Z,101299.61
2019-05-15T07:15:09.045Z,101300.08
2019-05-15T07:16:44.930Z,101294.72
2019-05-15T07:18:21.597Z,101291.80
2019-05-15T07:19:59.299Z,101297.47
2019-05-15T07:21:35.127Z,101294.34
2019-05-15T07:23:10.706Z,101300.77
2019-05-15T07:24:47.814Z,101298.63
2019-05-15T07:26:23.476Z,101301.23
2019-05-15T07:28:00.514Z,101300.75
2019-05-15T07:29:38.395Z,101301.37
2019-05-15T07:31:13.993Z,101301.97
2019-05-15T07:32:49.511Z,101303.03
2019-05-15T07:34:28.180Z,101305.52
2019-05-15T07:36:03.075Z,101303.27
2019-05-15T07:37:39.715Z,101300.00
2019-05-15T07:39:17.963Z,101300.90
2019-05-15T07:41:00.057Z,101302.12
2019-05-15T07:42:31.688Z,101301.67
2019-05-15T07:44:07.984Z,101298.98
2019-05-15T07:45:44.717Z,101296.30
2019-05-15T07:47:21.174Z,101293.06
2019-05-15T07:48:58.371Z,101296.34
2019-05-15T07:50:35.017Z,101296.89
2019-05-15T07:52:10.555Z,101295.44
2019-05-15T07:53:48.944Z,101297.81
2019-05-15T07:55:24.065Z,101308.26
2019-05-15T07:57:00.602Z,101297.91
2019-05-15T07:58:38.440Z,101300.59
2019-05-15T08:00:19.674Z,101299.92
2019-05-15T08:01:57.975Z,101300.91
2019-05-15T08:03:34.521Z,101298.24
2019-05-15T08:05:11.225Z,101296.64
2019-05-15T08:06:49.019Z,101297.86
2019-05-15T08:08:24.758Z,101296.92
2019-05-15T08:10:00.921Z,101294.95
2019-05-15T08:11:38.993Z,101294.95
2019-05-15T08:13:14.498Z,101283.38
2019-05-15T08:14:51.062Z,101286.99
2019-05-15T08:16:28.685Z,101286.99
2019-05-15T08:18:09.894Z,101286.68
2019-05-15T08:19:44.178Z,101285.30
2019-05-15T08:21:20.155Z,101278.95
2019-05-15T08:22:58.268Z,101283.92
2019-05-15T08:24:33.684Z,101283.92
2019-05-15T08:26:09.611Z,101284.67
2019-05-15T08:27:48.287Z,101287.43
2019-05-15T08:29:23.231Z,101289.67
2019-05-15T08:30:59.180Z,101289.91
2019-05-15T08:32:35.286Z,101291.29
2019-05-15T08:34:15.900Z,101287.91
2019-05-15T08:35:51.805Z,101288.73
2019-05-15T08:37:29.120Z,101285.98
2019-05-15T08:39:05.688Z,101285.70
2019-05-15T08:40:41.579Z,101283.53
2019-05-15T08:42:18.869Z,101284.98
2019-05-15T08:43:55.042Z,101290.58
2019-05-15T08:45:30.949Z,101290.66
2019-05-15T08:47:08.190Z,101284.83
2019-05-15T08:48:44.689Z,101281.84
2019-05-15T08:50:21.969Z,101284.91
2019-05-15T08:51:58.421Z,101288.28
2019-05-15T08:53:34.460Z,101282.77
2019-05-15T08:55:10.677Z,101285.30
2019-05-15T08:56:48.395Z,101283.98
2019-05-15T08:58:24.166Z,101284.81
2019-05-15T09:00:00.164Z,101284.69
2019-05-15T09:01:38.128Z,101283.59
2019-05-15T09:03:14.624Z,101284.52
2019-05-15T09:04:50.533Z,101284.91
2019-05-15T09:06:29.086Z,101289.09
2019-05-15T09:08:09.223Z,101280.06
2019-05-15T09:09:44.874Z,101283.12
2019-05-15T09:11:20.820Z,101271.85
2019-05-15T09:12:58.606Z,101280.20
2019-05-15T09:14:34.751Z,101284.42
2019-05-15T09:16:10.682Z,101285.04
2019-05-15T09:17:48.866Z,101281.49
2019-05-15T09:19:27.969Z,101282.94
2019-05-15T09:21:03.487Z,101284.95
2019-05-15T09:22:39.851Z,101282.77
2019-05-15T09:24:16.039Z,101275.88
2019-05-15T09:25:52.022Z,101284.16
2019-05-15T09:27:28.259Z,101276.67
2019-05-15T09:29:04.159Z,101283.88
2019-05-15T09:30:42.994Z,101270.52
2019-05-15T09:32:19.277Z,101273.52
2019-05-15T09:33:58.384Z,101272.14
2019-05-15T09:35:33.386Z,101270.45
2019-05-15T09:37:09.299Z,101271.52
2019-05-15T09:38:45.195Z,101271.00
2019-05-15T09:40:21.178Z,101271.31
2019-05-15T09:41:57.893Z,101269.07
2019-05-15T09:43:34.236Z,101265.55
2019-05-15T09:45:10.772Z,101264.17
2019-05-15T09:46:48.774Z,101265.00
2019-05-15T09:48:24.259Z,101262.25
2019-05-15T09:50:00.183Z,101261.11
2019-05-15T09:51:38.334Z,101262.80
2019-05-15T09:53:13.698Z,101260.86
2019-05-15T09:54:49.663Z,101257.04
2019-05-15T09:56:28.910Z,101261.94
2019-05-15T09:58:03.219Z,101253.38
2019-05-15T09:59:39.296Z,101256.13
2019-05-15T10:01:15.580Z,101252.83
2019-05-15T10:02:51.513Z,101252.59
2019-05-15T10:04:28.639Z,101248.45
2019-05-15T10:06:04.913Z,101244.06
2019-05-15T10:07:43.467Z,101246.06
2019-05-15T10:09:19.070Z,101242.00
2019-05-15T10:10:55.046Z,101245.59
2019-05-15T10:12:34.939Z,101248.42
2019-05-15T10:14:09.828Z,101241.06
2019-05-15T10:15:50.232Z,101238.38
2019-05-15T10:17:23.655Z,101243.11
2019-05-15T10:18:59.564Z,101234.06
2019-05-15T10:20:35.743Z,101234.65
2019-05-15T10:22:12.163Z,101232.20
2019-05-15T10:23:49.089Z,101236.34
2019-05-15T10:25:28.030Z,101234.72
2019-05-15T10:27:03.375Z,101236.72
2019-05-15T10:28:39.662Z,101229.81
2019-05-15T10:30:18.702Z,101234.02
2019-05-15T10:31:53.981Z,101231.67
2019-05-15T10:33:30.949Z,101232.16
2019-05-15T10:35:24.514Z,101230.78
2019-05-15T10:36:49.580Z,101228.56
2019-05-15T10:38:28.294Z,101226.56
2019-05-15T10:40:03.197Z,101229.33
2019-05-15T10:41:39.101Z,101227.64
2019-05-15T10:43:15.421Z,101232.95
2019-05-15T10:44:51.309Z,101224.77
2019-05-15T10:46:27.288Z,101226.73
2019-05-15T10:48:03.572Z,101233.45
2019-05-15T10:49:39.494Z,101226.41
2019-05-15T10:51:15.486Z,101228.38
2019-05-15T10:52:51.437Z,101230.69
2019-05-15T10:54:28.947Z,101228.02
2019-05-15T10:56:05.004Z,101223.42
2019-05-15T10:57:43.707Z,101215.26
2019-05-15T10:59:18.597Z,101220.36
2019-05-15T11:00:54.800Z,101213.81
2019-05-15T11:02:30.745Z,101211.42
2019-05-15T11:04:09.284Z,101217.29
2019-05-15T11:05:46.055Z,101215.69
2019-05-15T11:07:21.966Z,101214.06
2019-05-15T11:08:58.351Z,101211.88
2019-05-15T11:10:38.603Z,101206.20
2019-05-15T11:12:13.322Z,101206.53
2019-05-15T11:13:49.548Z,101203.62
2019-05-15T11:15:28.948Z,101197.04
2019-05-15T11:17:05.797Z,101196.33
2019-05-15T11:18:41.996Z,101197.83
2019-05-15T11:20:20.533Z,101196.86
2019-05-15T11:21:58.343Z,101198.63
2019-05-15T11:23:34.079Z,101202.89
2019-05-15T11:25:10.526Z,101188.59
2019-05-15T11:26:49.821Z,101193.68
2019-05-15T11:28:24.171Z,101191.58
2019-05-15T11:30:00.076Z,101189.39
2019-05-15T11:31:35.973Z,101180.02
2019-05-15T11:33:12.448Z,101181.97
2019-05-15T11:34:49.250Z,101187.55
2019-05-15T11:36:25.296Z,101182.08
2019-05-15T11:38:01.274Z,101183.52
2019-05-15T11:39:44.527Z,101178.03
2019-05-15T11:41:15.057Z,101186.94
2019-05-15T11:42:50.981Z,101183.09
2019-05-15T11:44:28.317Z,101187.49
2019-05-15T11:46:11.240Z,101192.12
2019-05-15T11:47:48.339Z,101187.34
2019-05-15T11:49:24.667Z,101176.69
2019-05-15T11:51:01.082Z,101182.12
2019-05-15T11:52:40.114Z,101183.70
2019-05-15T11:54:14.697Z,101179.19
2019-05-15T11:55:50.853Z,101187.43
2019-05-15T11:57:39.113Z,101181.84
2019-05-15T11:59:04.341Z,101189.31
2019-05-15T12:00:40.760Z,101183.48
2019-05-15T12:02:18.883Z,101178.97
2019-05-15T12:03:54.532Z,101181.16
2019-05-15T12:05:31.252Z,101178.09
2019-05-15T12:07:08.721Z,101177.26
2019-05-15T12:08:44.730Z,101177.51
2019-05-15T12:10:20.786Z,101176.65
2019-05-15T12:11:56.678Z,101182.18
2019-05-15T12:13:33.541Z,101174.96
2019-05-15T12:15:10.411Z,101176.34
2019-05-15T12:17:04.699Z,101168.30
2019-05-15T12:18:23.925Z,101173.52
2019-05-15T12:20:05.660Z,101162.72
2019-05-15T12:21:39.610Z,101169.05
2019-05-15T12:23:15.010Z,101170.64
2019-05-15T12:24:50.902Z,101169.52
2019-05-15T12:26:29.200Z,101163.41
2019-05-15T12:28:04.747Z,101170.59
2019-05-15T12:29:40.688Z,101164.78
2019-05-15T12:31:16.615Z,101163.41
2019-05-15T12:32:52.513Z,101164.78
2019-05-15T12:34:28.987Z,101161.72
2019-05-15T12:36:05.061Z,101168.63
2019-05-15T12:37:40.957Z,101168.07
2019-05-15T12:39:21.815Z,101165.56
2019-05-15T13:00:29.829Z,101158.23
2019-05-15T13:02:05.293Z,101156.84
2019-05-15T13:03:41.201Z,101151.32
2019-05-15T13:05:19.239Z,101154.70
2019-05-15T13:07:11.529Z,101148.92
2019-05-15T13:08:32.568Z,101139.86
2019-05-15T13:10:10.833Z,101135.45
2019-05-15T13:11:48.488Z,101134.96
2019-05-15T13:13:25.623Z,101142.17
2019-05-15T13:15:02.382Z,101138.28
2019-05-15T13:16:39.011Z,101135.52
2019-05-15T13:18:15.356Z,101135.77
2019-05-15T13:19:51.235Z,101129.68
2019-05-15T13:21:29.464Z,101134.66
2019-05-15T13:23:04.740Z,101133.88
2019-05-15T13:24:40.655Z,101131.73
2019-05-15T13:26:23.779Z,101128.72
2019-05-15T13:27:54.165Z,101128.72
2019-05-15T13:29:30.056Z,101127.91
2019-05-15T13:31:06.013Z,101126.00
2019-05-15T13:32:41.915Z,101121.05
2019-05-15T13:34:19.615Z,101121.05
2019-05-15T13:35:58.166Z,101121.66
2019-05-15T13:37:33.037Z,101118.59
2019-05-15T13:39:09.099Z,101118.90
2019-05-15T13:40:45.264Z,101120.28
2019-05-15T13:42:21.155Z,101111.43
2019-05-15T13:43:58.381Z,101118.64
2019-05-15T13:45:34.410Z,101115.58
2019-05-15T13:47:10.354Z,101117.52
2019-05-15T13:48:48.833Z,101114.75
2019-05-15T13:50:23.947Z,101111.98
2019-05-15T13:51:59.962Z,101111.16
2019-05-15T13:53:38.496Z,101108.97
2019-05-15T13:55:13.577Z,101107.89
2019-05-15T13:56:49.555Z,101110.71
2019-05-15T13:58:28.051Z,101101.08
2019-05-15T14:00:03.342Z,101095.60
2019-05-15T14:01:39.608Z,101101.71
2019-05-15T14:03:15.499Z,101094.84
2019-05-15T14:04:51.397Z,101090.75
2019-05-15T14:06:28.623Z,101089.42
2019-05-15T14:08:05.151Z,101089.77
2019-05-15T14:09:44.294Z,101091.55
2019-05-15T14:11:21.888Z,101087.20
2019-05-15T14:12:58.284Z,101087.25
2019-05-15T14:14:33.885Z,101090.89
2019-05-15T14:16:10.031Z,101080.43
2019-05-15T14:17:48.170Z,101083.24
2019-05-15T14:19:24.536Z,101086.91
2019-05-15T14:21:00.423Z,101080.86
2019-05-15T14:22:38.665Z,101078.66
2019-05-15T14:24:13.935Z,101076.50
2019-05-15T14:25:50.117Z,101077.06
2019-05-15T14:27:28.748Z,101083.77
2019-05-15T14:29:05.676Z,101081.27
2019-05-15T14:30:41.548Z,101071.58
2019-05-15T14:32:32.820Z,101075.51
2019-05-15T14:33:57.924Z,101073.56
2019-05-15T14:35:33.350Z,101068.33
2019-05-15T14:37:10.372Z,101077.77
2019-05-15T14:38:48.412Z,101068.91
2019-05-15T14:40:23.836Z,101062.28
2019-05-15T14:41:59.721Z,101066.19
2019-05-15T14:43:35.612Z,101066.48
2019-05-15T14:45:13.325Z,101064.02
2019-05-15T14:46:50.847Z,101055.71
2019-05-15T14:48:28.154Z,101057.92
2019-05-15T14:50:05.403Z,101057.92
2019-05-15T14:51:41.281Z,101057.09
2019-05-15T14:53:18.672Z,101055.97
2019-05-15T14:54:55.017Z,101061.50
2019-05-15T14:56:31.165Z,101055.97
2019-05-15T14:58:08.316Z,101055.97
2019-05-15T14:59:44.353Z,101058.44
2019-05-15T15:01:20.257Z,101051.22
2019-05-15T15:02:58.668Z,101050.69
2019-05-15T15:04:33.734Z,101048.70
2019-05-15T15:06:10.440Z,101052.03
2019-05-15T15:07:49.138Z,101050.09
2019-05-15T15:09:25.137Z,101047.58
2019-05-15T15:11:01.215Z,101047.58
2019-05-15T15:12:39.788Z,101046.72
2019-05-15T15:14:17.903Z,101042.57
2019-05-15T15:15:53.561Z,101041.19
2019-05-15T15:17:29.451Z,101040.92
2019-05-15T15:19:05.482Z,101041.74
2019-05-15T15:20:42.540Z,101040.36
2019-05-15T15:22:18.427Z,101040.66
2019-05-15T15:23:54.325Z,101037.34
2019-05-15T15:25:30.233Z,101035.95
2019-05-15T15:27:08.273Z,101037.03
2019-05-15T15:28:44.022Z,101030.98
2019-05-15T15:30:21.140Z,101037.89
2019-05-15T15:31:58.954Z,101030.12
2019-05-15T15:33:35.995Z,101030.67
2019-05-15T15:35:14.520Z,101026.22
2019-05-15T15:36:50.580Z,101029.85
2019-05-15T15:38:38.203Z,101028.47
2019-05-15T15:40:10.074Z,101022.94
2019-05-15T15:41:48.406Z,101026.52
2019-05-15T15:43:23.792Z,101028.16
2019-05-15T15:44:59.797Z,101018.48
2019-05-15T15:46:35.838Z,101022.89
2019-05-15T15:48:12.122Z,101016.24
2019-05-15T15:49:48.038Z,101014.03
2019-05-15T15:51:24.017Z,101019.87
2019-05-15T15:52:59.936Z,101016.02
2019-05-15T15:54:35.899Z,101013.47
2019-05-15T15:56:11.850Z,101013.77
2019-05-15T15:57:48.646Z,101011.30
2019-05-15T15:59:24.806Z,101010.22
2019-05-15T16:01:02.113Z,101007.45
2019-05-15T16:02:41.058Z,101009.97
2019-05-15T16:04:15.926Z,101003.34
2019-05-15T16:05:52.271Z,101005.30
2019-05-15T16:07:28.370Z,101007.02
2019-05-15T16:09:08.806Z,101000.96
2019-05-15T16:10:44.835Z,101002.34
2019-05-15T16:12:20.924Z,100997.38
2019-05-15T16:13:58.529Z,101003.21
2019-05-15T16:15:34.686Z,101003.78
2019-05-15T16:17:11.111Z,101002.70
2019-05-15T16:18:49.815Z,100998.28
2019-05-15T16:20:28.103Z,101005.50
2019-05-15T16:22:03.918Z,101003.34
2019-05-15T16:23:42.609Z,100999.19
2019-05-15T16:25:18.808Z,101005.55
2019-05-15T16:26:54.741Z,100999.22
2019-05-15T16:28:30.856Z,100993.69
2019-05-15T16:30:08.443Z,100998.41
2019-05-15T16:31:44.531Z,101000.65
2019-05-15T16:33:20.477Z,100987.33
2019-05-15T16:34:58.322Z,100987.33
2019-05-15T16:36:34.039Z,100984.86
2019-05-15T16:38:11.189Z,100982.39
2019-05-15T16:39:48.851Z,100983.78
2019-05-15T16:41:24.861Z,100981.84
2019-05-15T16:43:00.730Z,100979.63
2019-05-15T16:44:38.483Z,100976.30
2019-05-15T16:46:14.591Z,100987.11
2019-05-15T16:47:50.554Z,100981.80
2019-05-15T16:49:28.451Z,100976.56
2019-05-15T16:51:04.159Z,100975.73
2019-05-15T16:52:41.547Z,100979.63
2019-05-15T16:54:18.238Z,100978.50
2019-05-15T16:55:54.599Z,100977.94
2019-05-15T16:57:38.559Z,100976.56
2019-05-15T16:59:15.097Z,100978.50
2019-05-15T17:00:50.796Z,100976.81
2019-05-15T17:02:28.222Z,100976.52
2019-05-15T17:04:03.964Z,100976.52
2019-05-15T17:05:40.429Z,100971.80
2019-05-15T17:07:18.080Z,100982.87
2019-05-15T17:08:54.052Z,100982.02
2019-05-15T17:10:29.629Z,100979.51
2019-05-15T17:12:08.573Z,100973.11
2019-05-15T17:13:43.338Z,100976.11
2019-05-15T17:15:19.946Z,100976.66
2019-05-15T17:16:58.433Z,100979.13
2019-05-15T17:18:33.824Z,100977.18
2019-05-15T17:20:10.318Z,100974.94
2019-05-15T17:21:48.165Z,100973.81
2019-05-15T17:23:24.120Z,100978.23
2019-05-15T17:25:01.011Z,100978.48
2019-05-15T17:26:36.563Z,100978.97
2019-05-15T17:28:12.900Z,100977.31
2019-05-15T17:29:49.170Z,100988.34
2019-05-15T17:31:25.487Z,100984.42
2019-05-15T17:33:01.119Z,100976.94
2019-05-15T17:34:38.075Z,100975.81
2019-05-15T17:36:13.835Z,100972.44
2019-05-15T17:37:50.203Z,100973.27
2019-05-15T17:39:34.575Z,100972.44
2019-05-15T17:41:04.882Z,100974.38
2019-05-15T17:42:40.444Z,100972.70
2019-05-15T17:44:16.878Z,100975.21
2019-05-15T17:45:52.560Z,100974.91
2019-05-15T17:47:28.895Z,100972.14
2019-05-15T17:49:08.711Z,100972.14
2019-05-15T17:50:48.610Z,100970.76
2019-05-15T17:52:20.189Z,100967.99
2019-05-15T17:53:58.267Z,100967.99
2019-05-15T17:55:33.972Z,100966.61
2019-05-15T17:57:10.329Z,100967.17
2019-05-15T17:58:45.891Z,100965.78
2019-05-15T18:00:22.469Z,100967.47
2019-05-15T18:01:59.508Z,100963.84
2019-05-15T18:03:35.999Z,100965.19
2019-05-15T18:05:13.579Z,100968.51
2019-05-15T18:06:49.994Z,100960.99
2019-05-15T18:08:28.481Z,100963.98
2019-05-15T18:10:08.425Z,100961.17
2019-05-15T18:11:44.663Z,100961.13
2019-05-15T18:13:24.058Z,100962.77
2019-05-15T18:14:59.593Z,100958.02
2019-05-15T18:16:38.494Z,100953.61
2019-05-15T18:18:14.500Z,100952.75
2019-05-15T18:19:51.055Z,100955.77
2019-05-15T18:21:28.892Z,100954.39
2019-05-15T18:23:08.439Z,100948.03
2019-05-15T18:24:44.365Z,100943.88
2019-05-15T18:26:20.868Z,100950.75
2019-05-15T18:27:59.061Z,100946.00
2019-05-15T18:29:35.329Z,100944.88
2019-05-15T18:31:11.179Z,100939.05
2019-05-15T18:32:49.006Z,100942.63
2019-05-15T18:34:25.838Z,100945.09
2019-05-15T18:36:02.321Z,100943.11
2019-05-15T18:37:39.287Z,100942.80
2019-05-15T18:39:16.310Z,100944.70
2019-05-15T18:40:52.017Z,100942.19
2019-05-15T18:42:29.472Z,100937.44
2019-05-15T18:44:05.256Z,100936.31